sensor_id;sensor_type;location;lat;lon;timestamp;temperature;humidity
71647;SHT31;59706;45.634;11.704;2023-04-30T00:01:28;16.93;70.90
71647;SHT31;59706;45.634;11.704;2023-04-30T00:03:55;16.84;71.10
71647;SHT31;59706;45.634;11.704;2023-04-30T00:06:23;16.77;71.28
71647;SHT31;59706;45.634;11.704;2023-04-30T00:08:50;16.75;71.34
71647;SHT31;59706;45.634;11.704;2023-04-30T00:11:17;16.73;71.52
71647;SHT31;59706;45.634;11.704;2023-04-30T00:13:45;16.73;71.68
71647;SHT31;59706;45.634;11.704;2023-04-30T00:16:12;16.74;71.77
71647;SHT31;59706;45.634;11.704;2023-04-30T00:18:39;16.76;71.81
71647;SHT31;59706;45.634;11.704;2023-04-30T00:21:06;16.71;71.92
71647;SHT31;59706;45.634;11.704;2023-04-30T00:23:34;16.69;72.00
71647;SHT31;59706;45.634;11.704;2023-04-30T00:26:01;16.68;72.03
71647;SHT31;59706;45.634;11.704;2023-04-30T00:28:29;16.71;71.90
71647;SHT31;59706;45.634;11.704;2023-04-30T00:30:56;16.81;71.81
71647;SHT31;59706;45.634;11.704;2023-04-30T00:33:23;16.87;71.60
71647;SHT31;59706;45.634;11.704;2023-04-30T00:35:51;16.89;71.64
71647;SHT31;59706;45.634;11.704;2023-04-30T00:38:18;16.98;71.43
71647;SHT31;59706;45.634;11.704;2023-04-30T00:40:46;17.05;71.11
71647;SHT31;59706;45.634;11.704;2023-04-30T00:43:14;17.10;70.93
71647;SHT31;59706;45.634;11.704;2023-04-30T00:45:41;17.13;70.90
71647;SHT31;59706;45.634;11.704;2023-04-30T00:48:08;17.12;70.94
71647;SHT31;59706;45.634;11.704;2023-04-30T00:50:35;17.11;71.00
71647;SHT31;59706;45.634;11.704;2023-04-30T00:53:03;17.08;71.15
71647;SHT31;59706;45.634;11.704;2023-04-30T00:55:31;17.03;71.24
71647;SHT31;59706;45.634;11.704;2023-04-30T00:57:58;17.09;71.14
71647;SHT31;59706;45.634;11.704;2023-04-30T01:00:26;17.18;70.95
71647;SHT31;59706;45.634;11.704;2023-04-30T01:02:54;17.17;70.80
71647;SHT31;59706;45.634;11.704;2023-04-30T01:05:21;17.07;70.90
71647;SHT31;59706;45.634;11.704;2023-04-30T01:07:50;16.94;71.01
71647;SHT31;59706;45.634;11.704;2023-04-30T01:10:17;16.86;71.14
71647;SHT31;59706;45.634;11.704;2023-04-30T01:18:17;16.83;71.36
71647;SHT31;59706;45.634;11.704;2023-04-30T01:21:16;16.83;71.40
71647;SHT31;59706;45.634;11.704;2023-04-30T01:24:09;16.83;71.37
71647;SHT31;59706;45.634;11.704;2023-04-30T01:29:35;16.72;71.58
71647;SHT31;59706;45.634;11.704;2023-04-30T01:32:04;16.66;71.78
71647;SHT31;59706;45.634;11.704;2023-04-30T01:34:31;16.64;71.85
71647;SHT31;59706;45.634;11.704;2023-04-30T01:37:04;16.71;71.92
71647;SHT31;59706;45.634;11.704;2023-04-30T01:40:08;16.82;71.80
71647;SHT31;59706;45.634;11.704;2023-04-30T01:43:28;16.95;71.67
71647;SHT31;59706;45.634;11.704;2023-04-30T01:47:21;17.02;71.51
71647;SHT31;59706;45.634;11.704;2023-04-30T01:52:50;17.07;71.50
71647;SHT31;59706;45.634;11.704;2023-04-30T01:58:22;17.09;71.43
71647;SHT31;59706;45.634;11.704;2023-04-30T02:00:50;17.08;71.52
71647;SHT31;59706;45.634;11.704;2023-04-30T02:03:18;16.93;71.88
71647;SHT31;59706;45.634;11.704;2023-04-30T02:05:46;16.80;72.11
71647;SHT31;59706;45.634;11.704;2023-04-30T02:08:14;16.67;72.40
71647;SHT31;59706;45.634;11.704;2023-04-30T02:10:42;16.61;72.52
71647;SHT31;59706;45.634;11.704;2023-04-30T02:13:08;16.59;72.57
71647;SHT31;59706;45.634;11.704;2023-04-30T02:15:36;16.58;72.63
71647;SHT31;59706;45.634;11.704;2023-04-30T02:18:03;16.53;72.89
71647;SHT31;59706;45.634;11.704;2023-04-30T02:20:30;16.48;73.09
71647;SHT31;59706;45.634;11.704;2023-04-30T02:22:58;16.49;72.92
71647;SHT31;59706;45.634;11.704;2023-04-30T02:25:25;16.42;72.90
71647;SHT31;59706;45.634;11.704;2023-04-30T02:27:52;16.44;72.84
71647;SHT31;59706;45.634;11.704;2023-04-30T02:30:19;16.48;72.76
71647;SHT31;59706;45.634;11.704;2023-04-30T02:32:46;16.45;72.82
71647;SHT31;59706;45.634;11.704;2023-04-30T02:35:14;16.42;72.86
71647;SHT31;59706;45.634;11.704;2023-04-30T02:37:41;16.41;72.80
71647;SHT31;59706;45.634;11.704;2023-04-30T02:40:08;16.39;72.90
71647;SHT31;59706;45.634;11.704;2023-04-30T02:42:38;16.39;72.94
71647;SHT31;59706;45.634;11.704;2023-04-30T02:45:06;16.38;72.92
71647;SHT31;59706;45.634;11.704;2023-04-30T02:47:35;16.39;72.89
71647;SHT31;59706;45.634;11.704;2023-04-30T02:50:02;16.46;72.74
71647;SHT31;59706;45.634;11.704;2023-04-30T02:52:32;16.58;72.57
71647;SHT31;59706;45.634;11.704;2023-04-30T02:54:59;16.60;72.54
71647;SHT31;59706;45.634;11.704;2023-04-30T02:57:27;16.63;72.41
71647;SHT31;59706;45.634;11.704;2023-04-30T02:59:54;16.57;72.46
71647;SHT31;59706;45.634;11.704;2023-04-30T03:02:21;16.48;72.62
71647;SHT31;59706;45.634;11.704;2023-04-30T03:04:49;16.41;72.73
71647;SHT31;59706;45.634;11.704;2023-04-30T03:07:17;16.37;72.90
71647;SHT31;59706;45.634;11.704;2023-04-30T03:09:44;16.36;72.85
71647;SHT31;59706;45.634;11.704;2023-04-30T03:12:11;16.42;72.76
71647;SHT31;59706;45.634;11.704;2023-04-30T03:14:39;16.49;72.54
71647;SHT31;59706;45.634;11.704;2023-04-30T03:17:06;16.45;72.50
71647;SHT31;59706;45.634;11.704;2023-04-30T03:19:33;16.38;72.58
71647;SHT31;59706;45.634;11.704;2023-04-30T03:22:01;16.33;72.70
71647;SHT31;59706;45.634;11.704;2023-04-30T03:24:28;16.29;72.73
71647;SHT31;59706;45.634;11.704;2023-04-30T03:26:55;16.22;72.89
71647;SHT31;59706;45.634;11.704;2023-04-30T03:29:23;16.17;72.99
71647;SHT31;59706;45.634;11.704;2023-04-30T03:31:50;16.15;73.00
71647;SHT31;59706;45.634;11.704;2023-04-30T03:34:17;16.14;72.95
71647;SHT31;59706;45.634;11.704;2023-04-30T03:36:45;16.15;72.87
71647;SHT31;59706;45.634;11.704;2023-04-30T03:39:12;16.17;72.90
71647;SHT31;59706;45.634;11.704;2023-04-30T03:41:40;16.18;72.88
71647;SHT31;59706;45.634;11.704;2023-04-30T03:44:07;16.21;72.79
71647;SHT31;59706;45.634;11.704;2023-04-30T03:46:40;16.20;72.74
71647;SHT31;59706;45.634;11.704;2023-04-30T03:49:27;16.17;72.76
71647;SHT31;59706;45.634;11.704;2023-04-30T03:51:54;16.15;72.76
71647;SHT31;59706;45.634;11.704;2023-04-30T03:54:21;16.11;72.80
71647;SHT31;59706;45.634;11.704;2023-04-30T03:56:49;16.10;72.82
71647;SHT31;59706;45.634;11.704;2023-04-30T03:59:16;16.10;72.78
71647;SHT31;59706;45.634;11.704;2023-04-30T04:01:43;16.12;72.72
71647;SHT31;59706;45.634;11.704;2023-04-30T04:04:09;16.05;72.89
71647;SHT31;59706;45.634;11.704;2023-04-30T04:06:36;16.04;73.04
71647;SHT31;59706;45.634;11.704;2023-04-30T04:09:04;16.05;72.93
71647;SHT31;59706;45.634;11.704;2023-04-30T04:11:31;16.07;72.87
71647;SHT31;59706;45.634;11.704;2023-04-30T04:13:58;16.15;72.68
71647;SHT31;59706;45.634;11.704;2023-04-30T04:16:26;16.27;72.31
71647;SHT31;59706;45.634;11.704;2023-04-30T04:18:53;16.39;72.13
71647;SHT31;59706;45.634;11.704;2023-04-30T04:21:20;16.46;71.97
71647;SHT31;59706;45.634;11.704;2023-04-30T04:23:47;16.48;71.97
71647;SHT31;59706;45.634;11.704;2023-04-30T04:26:15;16.43;72.14
71647;SHT31;59706;45.634;11.704;2023-04-30T04:28:43;16.40;71.96
71647;SHT31;59706;45.634;11.704;2023-04-30T04:31:12;16.29;71.96
71647;SHT31;59706;45.634;11.704;2023-04-30T04:33:39;16.23;71.98
71647;SHT31;59706;45.634;11.704;2023-04-30T04:36:07;16.23;71.99
71647;SHT31;59706;45.634;11.704;2023-04-30T04:38:34;16.25;71.84
71647;SHT31;59706;45.634;11.704;2023-04-30T04:41:00;16.33;71.84
71647;SHT31;59706;45.634;11.704;2023-04-30T04:43:27;16.41;71.71
71647;SHT31;59706;45.634;11.704;2023-04-30T04:45:55;16.49;71.83
71647;SHT31;59706;45.634;11.704;2023-04-30T04:48:22;16.50;71.83
71647;SHT31;59706;45.634;11.704;2023-04-30T04:50:50;16.56;71.69
71647;SHT31;59706;45.634;11.704;2023-04-30T04:53:17;16.59;71.74
71647;SHT31;59706;45.634;11.704;2023-04-30T04:55:44;16.56;71.82
71647;SHT31;59706;45.634;11.704;2023-04-30T04:58:11;16.50;71.80
71647;SHT31;59706;45.634;11.704;2023-04-30T05:00:39;16.52;71.89
71647;SHT31;59706;45.634;11.704;2023-04-30T05:03:06;16.48;71.80
71647;SHT31;59706;45.634;11.704;2023-04-30T05:05:34;16.47;71.83
71647;SHT31;59706;45.634;11.704;2023-04-30T05:08:01;16.50;71.90
71647;SHT31;59706;45.634;11.704;2023-04-30T05:10:29;16.58;71.88
71647;SHT31;59706;45.634;11.704;2023-04-30T05:12:56;16.67;71.80
71647;SHT31;59706;45.634;11.704;2023-04-30T05:15:23;16.72;71.66
71647;SHT31;59706;45.634;11.704;2023-04-30T05:17:50;16.76;71.32
71647;SHT31;59706;45.634;11.704;2023-04-30T05:20:18;16.78;71.13
71647;SHT31;59706;45.634;11.704;2023-04-30T05:22:46;16.69;71.30
71647;SHT31;59706;45.634;11.704;2023-04-30T05:25:13;16.59;71.55
71647;SHT31;59706;45.634;11.704;2023-04-30T05:27:41;16.54;71.68
71647;SHT31;59706;45.634;11.704;2023-04-30T05:30:09;16.54;71.87
71647;SHT31;59706;45.634;11.704;2023-04-30T05:32:37;16.60;72.04
71647;SHT31;59706;45.634;11.704;2023-04-30T05:35:04;16.63;72.35
71647;SHT31;59706;45.634;11.704;2023-04-30T05:37:34;16.61;72.49
71647;SHT31;59706;45.634;11.704;2023-04-30T05:40:02;16.69;72.40
71647;SHT31;59706;45.634;11.704;2023-04-30T05:42:34;16.73;72.53
71647;SHT31;59706;45.634;11.704;2023-04-30T05:45:02;16.76;72.81
71647;SHT31;59706;45.634;11.704;2023-04-30T05:47:31;16.73;72.88
71647;SHT31;59706;45.634;11.704;2023-04-30T05:49:58;16.70;72.85
71647;SHT31;59706;45.634;11.704;2023-04-30T05:52:26;16.77;72.88
71647;SHT31;59706;45.634;11.704;2023-04-30T05:54:53;16.84;72.63
71647;SHT31;59706;45.634;11.704;2023-04-30T05:57:21;16.85;72.20
71647;SHT31;59706;45.634;11.704;2023-04-30T05:59:48;16.79;72.06
71647;SHT31;59706;45.634;11.704;2023-04-30T06:02:16;16.80;72.13
71647;SHT31;59706;45.634;11.704;2023-04-30T06:04:43;16.82;72.34
71647;SHT31;59706;45.634;11.704;2023-04-30T06:07:11;16.86;72.58
71647;SHT31;59706;45.634;11.704;2023-04-30T06:09:38;16.90;72.74
71647;SHT31;59706;45.634;11.704;2023-04-30T06:12:05;16.91;73.08
71647;SHT31;59706;45.634;11.704;2023-04-30T06:14:33;16.94;73.45
71647;SHT31;59706;45.634;11.704;2023-04-30T06:17:01;17.00;73.18
71647;SHT31;59706;45.634;11.704;2023-04-30T06:19:28;16.99;73.19
71647;SHT31;59706;45.634;11.704;2023-04-30T06:21:55;16.94;72.79
71647;SHT31;59706;45.634;11.704;2023-04-30T06:24:23;16.99;72.82
71647;SHT31;59706;45.634;11.704;2023-04-30T06:26:51;17.03;72.91
71647;SHT31;59706;45.634;11.704;2023-04-30T06:29:18;17.05;72.98
71647;SHT31;59706;45.634;11.704;2023-04-30T06:31:48;17.05;73.09
71647;SHT31;59706;45.634;11.704;2023-04-30T06:34:16;17.06;72.95
71647;SHT31;59706;45.634;11.704;2023-04-30T06:36:45;17.11;72.91
71647;SHT31;59706;45.634;11.704;2023-04-30T06:39:15;17.14;73.00
71647;SHT31;59706;45.634;11.704;2023-04-30T06:41:42;17.18;72.98
71647;SHT31;59706;45.634;11.704;2023-04-30T06:44:11;17.23;72.99
71647;SHT31;59706;45.634;11.704;2023-04-30T06:46:39;17.22;73.15
71647;SHT31;59706;45.634;11.704;2023-04-30T06:51:54;17.16;73.47
71647;SHT31;59706;45.634;11.704;2023-04-30T06:54:23;17.16;73.48
71647;SHT31;59706;45.634;11.704;2023-04-30T06:56:53;17.17;73.47
71647;SHT31;59706;45.634;11.704;2023-04-30T06:59:21;17.19;73.28
71647;SHT31;59706;45.634;11.704;2023-04-30T07:01:48;17.20;73.32
71647;SHT31;59706;45.634;11.704;2023-04-30T07:04:15;17.19;73.42
71647;SHT31;59706;45.634;11.704;2023-04-30T07:06:43;17.20;73.43
71647;SHT31;59706;45.634;11.704;2023-04-30T07:09:10;17.20;73.55
71647;SHT31;59706;45.634;11.704;2023-04-30T07:11:39;17.20;73.81
71647;SHT31;59706;45.634;11.704;2023-04-30T07:14:06;17.18;73.93
71647;SHT31;59706;45.634;11.704;2023-04-30T07:16:34;17.18;74.07
71647;SHT31;59706;45.634;11.704;2023-04-30T07:19:03;17.15;74.29
71647;SHT31;59706;45.634;11.704;2023-04-30T07:21:31;17.12;74.35
71647;SHT31;59706;45.634;11.704;2023-04-30T07:23:58;17.11;74.39
71647;SHT31;59706;45.634;11.704;2023-04-30T07:26:25;17.09;74.42
71647;SHT31;59706;45.634;11.704;2023-04-30T07:28:52;17.09;74.60
71647;SHT31;59706;45.634;11.704;2023-04-30T07:31:20;17.10;74.64
71647;SHT31;59706;45.634;11.704;2023-04-30T07:33:48;17.13;74.54
71647;SHT31;59706;45.634;11.704;2023-04-30T07:36:15;17.15;74.48
71647;SHT31;59706;45.634;11.704;2023-04-30T07:38:42;17.15;74.52
71647;SHT31;59706;45.634;11.704;2023-04-30T07:41:09;17.11;74.54
71647;SHT31;59706;45.634;11.704;2023-04-30T07:43:37;17.17;74.50
71647;SHT31;59706;45.634;11.704;2023-04-30T07:46:05;17.20;74.65
71647;SHT31;59706;45.634;11.704;2023-04-30T07:48:32;17.17;74.65
71647;SHT31;59706;45.634;11.704;2023-04-30T07:50:59;17.19;74.72
71647;SHT31;59706;45.634;11.704;2023-04-30T07:53:28;17.21;75.00
71647;SHT31;59706;45.634;11.704;2023-04-30T07:55:56;17.25;74.96
71647;SHT31;59706;45.634;11.704;2023-04-30T07:58:24;17.26;75.06
71647;SHT31;59706;45.634;11.704;2023-04-30T08:00:51;17.28;75.23
71647;SHT31;59706;45.634;11.704;2023-04-30T08:03:19;17.30;75.42
71647;SHT31;59706;45.634;11.704;2023-04-30T08:05:46;17.32;75.51
71647;SHT31;59706;45.634;11.704;2023-04-30T08:08:13;17.36;75.71
71647;SHT31;59706;45.634;11.704;2023-04-30T08:10:41;17.37;75.81
71647;SHT31;59706;45.634;11.704;2023-04-30T08:13:08;17.39;75.89
71647;SHT31;59706;45.634;11.704;2023-04-30T08:15:36;17.42;75.86
71647;SHT31;59706;45.634;11.704;2023-04-30T08:18:04;17.42;75.88
71647;SHT31;59706;45.634;11.704;2023-04-30T08:20:31;17.44;75.77
71647;SHT31;59706;45.634;11.704;2023-04-30T08:22:57;17.46;75.91
71647;SHT31;59706;45.634;11.704;2023-04-30T08:25:25;17.49;76.17
71647;SHT31;59706;45.634;11.704;2023-04-30T08:27:52;17.53;76.29
71647;SHT31;59706;45.634;11.704;2023-04-30T08:30:20;17.55;76.30
71647;SHT31;59706;45.634;11.704;2023-04-30T08:32:48;17.59;76.26
71647;SHT31;59706;45.634;11.704;2023-04-30T08:35:14;17.65;75.71
71647;SHT31;59706;45.634;11.704;2023-04-30T08:37:42;17.71;75.63
71647;SHT31;59706;45.634;11.704;2023-04-30T08:40:09;17.73;75.91
71647;SHT31;59706;45.634;11.704;2023-04-30T08:42:40;17.77;76.05
71647;SHT31;59706;45.634;11.704;2023-04-30T08:45:14;17.79;76.27
71647;SHT31;59706;45.634;11.704;2023-04-30T08:47:41;17.82;76.31
71647;SHT31;59706;45.634;11.704;2023-04-30T08:50:10;17.84;76.29
71647;SHT31;59706;45.634;11.704;2023-04-30T08:52:38;17.88;76.10
71647;SHT31;59706;45.634;11.704;2023-04-30T08:55:07;17.93;75.92
71647;SHT31;59706;45.634;11.704;2023-04-30T08:57:36;17.98;75.97
71647;SHT31;59706;45.634;11.704;2023-04-30T09:00:03;18.00;76.09
71647;SHT31;59706;45.634;11.704;2023-04-30T09:02:38;18.03;75.94
71647;SHT31;59706;45.634;11.704;2023-04-30T09:05:08;18.06;75.73
71647;SHT31;59706;45.634;11.704;2023-04-30T09:07:40;18.07;75.52
71647;SHT31;59706;45.634;11.704;2023-04-30T09:10:17;18.06;75.56
71647;SHT31;59706;45.634;11.704;2023-04-30T09:12:58;18.03;75.85
71647;SHT31;59706;45.634;11.704;2023-04-30T09:15:34;18.08;75.91
71647;SHT31;59706;45.634;11.704;2023-04-30T09:18:12;18.13;75.99
71647;SHT31;59706;45.634;11.704;2023-04-30T09:20:58;18.15;76.06
71647;SHT31;59706;45.634;11.704;2023-04-30T09:23:30;18.17;76.13
71647;SHT31;59706;45.634;11.704;2023-04-30T09:25:57;18.19;76.17
71647;SHT31;59706;45.634;11.704;2023-04-30T09:28:25;18.24;76.02
71647;SHT31;59706;45.634;11.704;2023-04-30T09:30:56;18.27;76.12
71647;SHT31;59706;45.634;11.704;2023-04-30T09:33:24;18.30;76.18
71647;SHT31;59706;45.634;11.704;2023-04-30T09:35:51;18.30;75.87
71647;SHT31;59706;45.634;11.704;2023-04-30T09:38:51;18.35;75.80
71647;SHT31;59706;45.634;11.704;2023-04-30T09:41:21;18.43;75.90
71647;SHT31;59706;45.634;11.704;2023-04-30T09:43:53;18.49;75.97
71647;SHT31;59706;45.634;11.704;2023-04-30T09:46:20;18.52;75.74
71647;SHT31;59706;45.634;11.704;2023-04-30T09:48:55;18.52;75.94
71647;SHT31;59706;45.634;11.704;2023-04-30T09:51:23;18.51;76.08
71647;SHT31;59706;45.634;11.704;2023-04-30T09:53:51;18.53;76.09
71647;SHT31;59706;45.634;11.704;2023-04-30T09:56:22;18.58;76.01
71647;SHT31;59706;45.634;11.704;2023-04-30T09:59:07;18.64;75.99
71647;SHT31;59706;45.634;11.704;2023-04-30T10:01:36;18.64;75.87
71647;SHT31;59706;45.634;11.704;2023-04-30T10:04:04;18.68;75.85
71647;SHT31;59706;45.634;11.704;2023-04-30T10:06:31;18.70;75.87
71647;SHT31;59706;45.634;11.704;2023-04-30T10:08:59;18.72;75.67
71647;SHT31;59706;45.634;11.704;2023-04-30T10:11:30;18.70;76.00
71647;SHT31;59706;45.634;11.704;2023-04-30T10:14:00;18.70;75.94
71647;SHT31;59706;45.634;11.704;2023-04-30T10:19:29;18.76;75.60
71647;SHT31;59706;45.634;11.704;2023-04-30T10:21:59;18.82;75.64
71647;SHT31;59706;45.634;11.704;2023-04-30T10:24:28;18.84;75.63
71647;SHT31;59706;45.634;11.704;2023-04-30T10:26:56;18.84;75.66
71647;SHT31;59706;45.634;11.704;2023-04-30T10:29:24;18.84;75.69
71647;SHT31;59706;45.634;11.704;2023-04-30T10:31:51;18.79;75.58
71647;SHT31;59706;45.634;11.704;2023-04-30T10:37:07;18.74;75.99
71647;SHT31;59706;45.634;11.704;2023-04-30T10:39:40;18.74;75.74
71647;SHT31;59706;45.634;11.704;2023-04-30T10:42:08;18.75;75.86
71647;SHT31;59706;45.634;11.704;2023-04-30T10:44:36;18.74;75.95
71647;SHT31;59706;45.634;11.704;2023-04-30T10:47:03;18.74;76.22
71647;SHT31;59706;45.634;11.704;2023-04-30T10:49:31;18.76;76.37
71647;SHT31;59706;45.634;11.704;2023-04-30T10:51:59;18.77;76.22
71647;SHT31;59706;45.634;11.704;2023-04-30T10:57:11;18.91;76.06
71647;SHT31;59706;45.634;11.704;2023-04-30T10:59:52;18.93;76.11
71647;SHT31;59706;45.634;11.704;2023-04-30T11:02:41;18.94;76.02
71647;SHT31;59706;45.634;11.704;2023-04-30T11:05:13;18.97;76.01
71647;SHT31;59706;45.634;11.704;2023-04-30T11:10:21;18.99;75.84
71647;SHT31;59706;45.634;11.704;2023-04-30T11:12:53;19.04;75.64
71647;SHT31;59706;45.634;11.704;2023-04-30T11:15:23;19.08;75.27
71647;SHT31;59706;45.634;11.704;2023-04-30T11:17:57;19.16;75.06
71647;SHT31;59706;45.634;11.704;2023-04-30T11:20:25;19.24;75.23
71647;SHT31;59706;45.634;11.704;2023-04-30T11:25:41;19.30;75.65
71647;SHT31;59706;45.634;11.704;2023-04-30T11:30:50;19.33;75.41
71647;SHT31;59706;45.634;11.704;2023-04-30T11:33:31;19.37;75.44
71647;SHT31;59706;45.634;11.704;2023-04-30T11:35:58;19.45;75.15
71647;SHT31;59706;45.634;11.704;2023-04-30T11:38:30;19.52;74.99
71647;SHT31;59706;45.634;11.704;2023-04-30T11:41:02;19.60;74.61
71647;SHT31;59706;45.634;11.704;2023-04-30T11:43:29;19.65;74.27
71647;SHT31;59706;45.634;11.704;2023-04-30T11:46:01;19.69;74.17
71647;SHT31;59706;45.634;11.704;2023-04-30T11:48:43;19.73;73.66
71647;SHT31;59706;45.634;11.704;2023-04-30T11:51:19;19.76;73.32
71647;SHT31;59706;45.634;11.704;2023-04-30T11:53:47;19.79;73.19
71647;SHT31;59706;45.634;11.704;2023-04-30T11:56:22;19.84;72.66
71647;SHT31;59706;45.634;11.704;2023-04-30T11:58:50;19.87;72.19
71647;SHT31;59706;45.634;11.704;2023-04-30T12:01:19;19.92;72.17
71647;SHT31;59706;45.634;11.704;2023-04-30T12:03:48;19.97;72.35
71647;SHT31;59706;45.634;11.704;2023-04-30T12:06:36;20.00;72.27
71647;SHT31;59706;45.634;11.704;2023-04-30T12:09:03;19.98;72.22
71647;SHT31;59706;45.634;11.704;2023-04-30T12:11:33;20.01;72.07
71647;SHT31;59706;45.634;11.704;2023-04-30T12:14:00;20.02;71.96
71647;SHT31;59706;45.634;11.704;2023-04-30T12:16:42;20.05;71.57
71647;SHT31;59706;45.634;11.704;2023-04-30T12:19:13;20.05;71.01
71647;SHT31;59706;45.634;11.704;2023-04-30T12:21:45;20.07;70.95
71647;SHT31;59706;45.634;11.704;2023-04-30T12:24:14;20.09;70.90
71647;SHT31;59706;45.634;11.704;2023-04-30T12:26:43;20.09;70.61
71647;SHT31;59706;45.634;11.704;2023-04-30T12:29:15;20.08;70.69
71647;SHT31;59706;45.634;11.704;2023-04-30T12:32:08;20.07;70.83
71647;SHT31;59706;45.634;11.704;2023-04-30T12:34:36;20.08;70.77
71647;SHT31;59706;45.634;11.704;2023-04-30T12:37:03;20.11;70.65
71647;SHT31;59706;45.634;11.704;2023-04-30T12:39:34;20.15;70.81
71647;SHT31;59706;45.634;11.704;2023-04-30T12:42:20;20.19;70.89
71647;SHT31;59706;45.634;11.704;2023-04-30T12:44:48;20.19;70.74
71647;SHT31;59706;45.634;11.704;2023-04-30T12:47:15;20.20;70.29
71647;SHT31;59706;45.634;11.704;2023-04-30T12:49:43;20.20;70.56
71647;SHT31;59706;45.634;11.704;2023-04-30T12:52:11;20.23;70.20
71647;SHT31;59706;45.634;11.704;2023-04-30T12:54:39;20.28;70.08
71647;SHT31;59706;45.634;11.704;2023-04-30T12:57:06;20.30;69.69
71647;SHT31;59706;45.634;11.704;2023-04-30T12:59:38;20.31;69.36
71647;SHT31;59706;45.634;11.704;2023-04-30T13:02:27;20.34;69.36
71647;SHT31;59706;45.634;11.704;2023-04-30T13:04:56;20.36;69.34
71647;SHT31;59706;45.634;11.704;2023-04-30T13:07:22;20.36;69.13
71647;SHT31;59706;45.634;11.704;2023-04-30T13:09:50;20.36;68.82
71647;SHT31;59706;45.634;11.704;2023-04-30T13:12:16;20.39;68.87
71647;SHT31;59706;45.634;11.704;2023-04-30T13:14:44;20.42;68.80
71647;SHT31;59706;45.634;11.704;2023-04-30T13:17:11;20.47;68.85
71647;SHT31;59706;45.634;11.704;2023-04-30T13:19:39;20.50;68.70
71647;SHT31;59706;45.634;11.704;2023-04-30T13:22:06;20.48;68.09
71647;SHT31;59706;45.634;11.704;2023-04-30T13:24:34;20.47;67.65
71647;SHT31;59706;45.634;11.704;2023-04-30T13:27:01;20.47;67.90
71647;SHT31;59706;45.634;11.704;2023-04-30T13:29:28;20.47;67.94
71647;SHT31;59706;45.634;11.704;2023-04-30T13:31:55;20.46;67.86
71647;SHT31;59706;45.634;11.704;2023-04-30T13:34:23;20.46;67.59
71647;SHT31;59706;45.634;11.704;2023-04-30T13:36:50;20.48;67.42
71647;SHT31;59706;45.634;11.704;2023-04-30T13:39:17;20.51;67.24
71647;SHT31;59706;45.634;11.704;2023-04-30T13:41:45;20.53;66.94
71647;SHT31;59706;45.634;11.704;2023-04-30T13:44:13;20.56;66.99
71647;SHT31;59706;45.634;11.704;2023-04-30T13:46:41;20.58;67.07
71647;SHT31;59706;45.634;11.704;2023-04-30T13:49:08;20.61;67.34
71647;SHT31;59706;45.634;11.704;2023-04-30T13:51:36;20.60;67.22
71647;SHT31;59706;45.634;11.704;2023-04-30T13:54:03;20.59;67.07
71647;SHT31;59706;45.634;11.704;2023-04-30T13:56:30;20.57;66.89
71647;SHT31;59706;45.634;11.704;2023-04-30T13:58:58;20.56;66.85
71647;SHT31;59706;45.634;11.704;2023-04-30T14:01:26;20.57;66.86
71647;SHT31;59706;45.634;11.704;2023-04-30T14:03:53;20.59;66.90
71647;SHT31;59706;45.634;11.704;2023-04-30T14:06:21;20.60;67.24
71647;SHT31;59706;45.634;11.704;2023-04-30T14:08:48;20.60;67.67
71647;SHT31;59706;45.634;11.704;2023-04-30T14:11:16;20.62;67.68
71647;SHT31;59706;45.634;11.704;2023-04-30T14:13:43;20.61;67.71
71647;SHT31;59706;45.634;11.704;2023-04-30T14:16:11;20.59;68.01
71647;SHT31;59706;45.634;11.704;2023-04-30T14:18:38;20.57;68.59
71647;SHT31;59706;45.634;11.704;2023-04-30T14:21:05;20.51;68.54
71647;SHT31;59706;45.634;11.704;2023-04-30T14:23:33;20.46;67.77
71647;SHT31;59706;45.634;11.704;2023-04-30T14:26:00;20.39;66.75
71647;SHT31;59706;45.634;11.704;2023-04-30T14:28:27;20.34;66.22
71647;SHT31;59706;45.634;11.704;2023-04-30T14:30:54;20.30;66.09
71647;SHT31;59706;45.634;11.704;2023-04-30T14:33:22;20.31;66.50
71647;SHT31;59706;45.634;11.704;2023-04-30T14:35:48;20.30;66.88
71647;SHT31;59706;45.634;11.704;2023-04-30T14:38:15;20.31;66.63
71647;SHT31;59706;45.634;11.704;2023-04-30T14:40:42;20.35;66.85
71647;SHT31;59706;45.634;11.704;2023-04-30T14:43:09;20.35;66.73
71647;SHT31;59706;45.634;11.704;2023-04-30T14:45:36;20.34;66.95
71647;SHT31;59706;45.634;11.704;2023-04-30T14:48:04;20.30;66.81
71647;SHT31;59706;45.634;11.704;2023-04-30T14:50:33;20.26;66.84
71647;SHT31;59706;45.634;11.704;2023-04-30T14:53:00;20.20;67.17
71647;SHT31;59706;45.634;11.704;2023-04-30T14:55:27;20.15;67.49
71647;SHT31;59706;45.634;11.704;2023-04-30T14:57:55;20.14;67.54
71647;SHT31;59706;45.634;11.704;2023-04-30T15:00:24;20.10;67.77
71647;SHT31;59706;45.634;11.704;2023-04-30T15:02:53;20.07;68.05
71647;SHT31;59706;45.634;11.704;2023-04-30T15:05:21;20.09;67.99
71647;SHT31;59706;45.634;11.704;2023-04-30T15:07:49;20.09;68.05
71647;SHT31;59706;45.634;11.704;2023-04-30T15:10:16;20.10;68.03
71647;SHT31;59706;45.634;11.704;2023-04-30T15:12:43;20.08;67.91
71647;SHT31;59706;45.634;11.704;2023-04-30T15:15:10;20.08;67.99
71647;SHT31;59706;45.634;11.704;2023-04-30T15:17:38;20.05;67.95
71647;SHT31;59706;45.634;11.704;2023-04-30T15:20:06;20.04;68.06
71647;SHT31;59706;45.634;11.704;2023-04-30T15:22:36;20.06;68.25
71647;SHT31;59706;45.634;11.704;2023-04-30T15:25:03;20.04;68.34
71647;SHT31;59706;45.634;11.704;2023-04-30T15:27:34;20.01;68.36
71647;SHT31;59706;45.634;11.704;2023-04-30T15:30:01;19.96;68.58
71647;SHT31;59706;45.634;11.704;2023-04-30T15:32:28;19.94;68.86
71647;SHT31;59706;45.634;11.704;2023-04-30T15:34:55;19.92;69.03
71647;SHT31;59706;45.634;11.704;2023-04-30T15:37:22;19.91;69.10
71647;SHT31;59706;45.634;11.704;2023-04-30T15:39:50;19.87;68.97
71647;SHT31;59706;45.634;11.704;2023-04-30T15:42:18;19.82;68.78
71647;SHT31;59706;45.634;11.704;2023-04-30T15:44:45;19.76;68.53
71647;SHT31;59706;45.634;11.704;2023-04-30T15:47:13;19.70;68.65
71647;SHT31;59706;45.634;11.704;2023-04-30T15:49:40;19.68;68.99
71647;SHT31;59706;45.634;11.704;2023-04-30T15:52:08;19.64;69.15
71647;SHT31;59706;45.634;11.704;2023-04-30T15:54:35;19.60;69.27
71647;SHT31;59706;45.634;11.704;2023-04-30T15:57:03;19.57;69.73
71647;SHT31;59706;45.634;11.704;2023-04-30T15:59:30;19.52;69.64
71647;SHT31;59706;45.634;11.704;2023-04-30T16:01:57;19.50;69.50